sensor_id;sensor_type;location;lat;lon;timestamp;pressure;altitude;pressure_sealevel;temperature;humidity
6150;BME280;3106;42.670;23.318;2023-08-17T00:02:19;94558.78;;;22.56;85.32
6150;BME280;3106;42.670;23.318;2023-08-17T00:04:46;94543.06;;;22.40;85.78
6150;BME280;3106;42.670;23.318;2023-08-17T00:07:13;94560.81;;;22.52;86.34
6150;BME280;3106;42.670;23.318;2023-08-17T00:09:40;94551.25;;;22.40;86.94
6150;BME280;3106;42.670;23.318;2023-08-17T00:12:07;94553.97;;;22.40;87.13
6150;BME280;3106;42.670;23.318;2023-08-17T00:14:35;94567.97;;;22.42;87.37
6150;BME280;3106;42.670;23.318;2023-08-17T00:17:02;94550.56;;;22.33;87.73
6150;BME280;3106;42.670;23.318;2023-08-17T00:19:29;94562.22;;;22.33;88.32
6150;BME280;3106;42.670;23.318;2023-08-17T00:21:56;94561.41;;;22.36;88.58
6150;BME280;3106;42.670;23.318;2023-08-17T00:24:23;94561.13;;;22.31;88.85
6150;BME280;3106;42.670;23.318;2023-08-17T00:26:50;94549.94;;;22.22;88.73
6150;BME280;3106;42.670;23.318;2023-08-17T00:29:17;94550.72;;;22.22;88.79
6150;BME280;3106;42.670;23.318;2023-08-17T00:31:45;94530.38;;;22.04;88.54
6150;BME280;3106;42.670;23.318;2023-08-17T00:34:12;94556.69;;;22.14;88.60
6150;BME280;3106;42.670;23.318;2023-08-17T00:36:39;94513.47;;;21.89;88.13
6150;BME280;3106;42.670;23.318;2023-08-17T00:39:06;94550.06;;;22.15;88.16
6150;BME280;3106;42.670;23.318;2023-08-17T00:41:33;94530.50;;;21.97;87.78
6150;BME280;3106;42.670;23.318;2023-08-17T00:44:00;94533.63;;;21.95;87.19
6150;BME280;3106;42.670;23.318;2023-08-17T00:46:27;94535.88;;;22.00;87.21
6150;BME280;3106;42.670;23.318;2023-08-17T00:48:56;94540.91;;;22.02;86.60
6150;BME280;3106;42.670;23.318;2023-08-17T00:51:24;94543.31;;;21.96;86.23
6150;BME280;3106;42.670;23.318;2023-08-17T00:53:52;94535.97;;;21.93;86.46
6150;BME280;3106;42.670;23.318;2023-08-17T00:56:21;94549.50;;;22.00;86.16
6150;BME280;3106;42.670;23.318;2023-08-17T00:58:48;94506.75;;;21.71;85.80
6150;BME280;3106;42.670;23.318;2023-08-17T01:01:16;94547.59;;;21.97;85.77
6150;BME280;3106;42.670;23.318;2023-08-17T01:03:43;94531.91;;;21.78;85.16
6150;BME280;3106;42.670;23.318;2023-08-17T01:06:11;94508.38;;;21.65;84.51
6150;BME280;3106;42.670;23.318;2023-08-17T01:08:39;94506.91;;;21.57;84.15
6150;BME280;3106;42.670;23.318;2023-08-17T01:11:16;94540.81;;;21.82;84.17
6150;BME280;3106;42.670;23.318;2023-08-17T01:13:49;94528.94;;;21.69;83.55
6150;BME280;3106;42.670;23.318;2023-08-17T01:16:24;94543.22;;;21.77;81.94
6150;BME280;3106;42.670;23.318;2023-08-17T01:18:54;94544.44;;;21.72;81.97
6150;BME280;3106;42.670;23.318;2023-08-17T01:21:24;94498.16;;;21.42;80.40
6150;BME280;3106;42.670;23.318;2023-08-17T01:23:57;94490.91;;;21.33;80.12
6150;BME280;3106;42.670;23.318;2023-08-17T01:26:25;94509.03;;;21.42;79.01
6150;BME280;3106;42.670;23.318;2023-08-17T01:28:52;94520.91;;;21.55;78.33
6150;BME280;3106;42.670;23.318;2023-08-17T01:31:22;94490.50;;;21.34;78.00
6150;BME280;3106;42.670;23.318;2023-08-17T01:33:54;94489.72;;;21.34;77.45
6150;BME280;3106;42.670;23.318;2023-08-17T01:36:25;94534.41;;;21.66;77.46
6150;BME280;3106;42.670;23.318;2023-08-17T01:38:56;94518.69;;;21.47;77.38
6150;BME280;3106;42.670;23.318;2023-08-17T01:41:24;94496.34;;;21.33;77.65
6150;BME280;3106;42.670;23.318;2023-08-17T01:43:53;94542.66;;;21.59;77.42
6150;BME280;3106;42.670;23.318;2023-08-17T01:46:20;94491.31;;;21.31;77.57
6150;BME280;3106;42.670;23.318;2023-08-17T01:48:47;94521.41;;;21.47;77.37
6150;BME280;3106;42.670;23.318;2023-08-17T01:51:17;94524.53;;;21.45;77.30
6150;BME280;3106;42.670;23.318;2023-08-17T01:53:45;94509.94;;;21.33;77.20
6150;BME280;3106;42.670;23.318;2023-08-17T01:56:14;94514.94;;;21.38;76.49
6150;BME280;3106;42.670;23.318;2023-08-17T01:58:41;94501.47;;;21.27;75.97
6150;BME280;3106;42.670;23.318;2023-08-17T02:01:08;94527.28;;;21.42;76.55
6150;BME280;3106;42.670;23.318;2023-08-17T02:03:35;94510.81;;;21.26;76.59
6150;BME280;3106;42.670;23.318;2023-08-17T02:06:02;94518.84;;;21.37;76.32
6150;BME280;3106;42.670;23.318;2023-08-17T02:08:29;94543.13;;;21.50;76.12
6150;BME280;3106;42.670;23.318;2023-08-17T02:10:56;94526.94;;;21.40;76.17
6150;BME280;3106;42.670;23.318;2023-08-17T02:13:24;94497.28;;;21.19;76.38
6150;BME280;3106;42.670;23.318;2023-08-17T02:15:53;94505.75;;;21.25;76.70
6150;BME280;3106;42.670;23.318;2023-08-17T02:18:19;94523.94;;;21.31;76.83
6150;BME280;3106;42.670;23.318;2023-08-17T02:20:46;94534.72;;;21.38;77.38
6150;BME280;3106;42.670;23.318;2023-08-17T02:23:13;94490.72;;;21.13;76.92
6150;BME280;3106;42.670;23.318;2023-08-17T02:25:40;94483.09;;;21.05;77.01
6150;BME280;3106;42.670;23.318;2023-08-17T02:28:07;94524.78;;;21.25;77.41
6150;BME280;3106;42.670;23.318;2023-08-17T02:30:35;94541.81;;;21.32;77.29
6150;BME280;3106;42.670;23.318;2023-08-17T02:33:03;94506.31;;;21.09;77.78
6150;BME280;3106;42.670;23.318;2023-08-17T02:35:30;94526.78;;;21.21;78.31
6150;BME280;3106;42.670;23.318;2023-08-17T02:37:57;94475.88;;;20.88;78.51
6150;BME280;3106;42.670;23.318;2023-08-17T02:40:24;94512.53;;;21.10;78.16
6150;BME280;3106;42.670;23.318;2023-08-17T02:42:51;94498.31;;;20.99;78.83
6150;BME280;3106;42.670;23.318;2023-08-17T02:45:18;94525.69;;;21.15;78.63
6150;BME280;3106;42.670;23.318;2023-08-17T02:47:46;94505.59;;;21.05;78.63
6150;BME280;3106;42.670;23.318;2023-08-17T02:50:13;94519.91;;;21.09;78.79
6150;BME280;3106;42.670;23.318;2023-08-17T02:52:40;94521.09;;;21.08;78.75
6150;BME280;3106;42.670;23.318;2023-08-17T02:55:07;94526.94;;;21.07;79.47
6150;BME280;3106;42.670;23.318;2023-08-17T02:57:34;94523.88;;;21.05;79.38
6150;BME280;3106;42.670;23.318;2023-08-17T03:00:01;94513.81;;;21.02;79.44
6150;BME280;3106;42.670;23.318;2023-08-17T03:02:27;94516.16;;;21.00;79.47
6150;BME280;3106;42.670;23.318;2023-08-17T03:04:56;94479.09;;;20.76;79.67
6150;BME280;3106;42.670;23.318;2023-08-17T03:07:23;94518.13;;;20.96;80.18
6150;BME280;3106;42.670;23.318;2023-08-17T03:09:49;94522.00;;;20.95;80.15
6150;BME280;3106;42.670;23.318;2023-08-17T03:12:16;94521.28;;;20.91;80.22
6150;BME280;3106;42.670;23.318;2023-08-17T03:14:43;94523.63;;;20.89;80.60
6150;BME280;3106;42.670;23.318;2023-08-17T03:17:10;94508.19;;;20.79;80.65
6150;BME280;3106;42.670;23.318;2023-08-17T03:19:37;94506.66;;;20.74;80.70
6150;BME280;3106;42.670;23.318;2023-08-17T03:22:05;94522.16;;;20.77;80.74
6150;BME280;3106;42.670;23.318;2023-08-17T03:24:32;94521.41;;;20.77;80.92
6150;BME280;3106;42.670;23.318;2023-08-17T03:26:59;94521.78;;;20.75;80.59
6150;BME280;3106;42.670;23.318;2023-08-17T03:29:25;94524.50;;;20.75;80.46
6150;BME280;3106;42.670;23.318;2023-08-17T03:31:52;94514.06;;;20.74;80.38
6150;BME280;3106;42.670;23.318;2023-08-17T03:34:19;94523.38;;;20.73;79.78
6150;BME280;3106;42.670;23.318;2023-08-17T03:36:46;94521.47;;;20.70;79.58
6150;BME280;3106;42.670;23.318;2023-08-17T03:39:14;94528.00;;;20.76;79.20
6150;BME280;3106;42.670;23.318;2023-08-17T03:41:41;94517.22;;;20.69;78.70
6150;BME280;3106;42.670;23.318;2023-08-17T03:44:08;94528.03;;;20.72;78.61
6150;BME280;3106;42.670;23.318;2023-08-17T03:46:35;94526.06;;;20.76;78.56
6150;BME280;3106;42.670;23.318;2023-08-17T03:49:02;94535.38;;;20.82;77.92
6150;BME280;3106;42.670;23.318;2023-08-17T03:51:29;94533.78;;;20.85;77.29
6150;BME280;3106;42.670;23.318;2023-08-17T03:53:56;94533.75;;;20.88;76.55
6150;BME280;3106;42.670;23.318;2023-08-17T03:56:24;94540.69;;;20.93;76.36
6150;BME280;3106;42.670;23.318;2023-08-17T03:58:53;94529.06;;;20.89;76.06
6150;BME280;3106;42.670;23.318;2023-08-17T04:01:20;94519.06;;;20.79;76.09
6150;BME280;3106;42.670;23.318;2023-08-17T04:03:46;94528.31;;;20.88;75.37
6150;BME280;3106;42.670;23.318;2023-08-17T04:06:13;94541.38;;;21.00;75.40
6150;BME280;3106;42.670;23.318;2023-08-17T04:08:40;94545.25;;;21.03;75.35
6150;BME280;3106;42.670;23.318;2023-08-17T04:11:07;94547.56;;;21.04;74.75
6150;BME280;3106;42.670;23.318;2023-08-17T04:13:35;94544.81;;;21.08;74.82
6150;BME280;3106;42.670;23.318;2023-08-17T04:16:02;94539.75;;;21.06;74.53
6150;BME280;3106;42.670;23.318;2023-08-17T04:18:29;94545.94;;;21.10;74.36
6150;BME280;3106;42.670;23.318;2023-08-17T04:20:56;94550.94;;;21.15;74.38
6150;BME280;3106;42.670;23.318;2023-08-17T04:23:23;94547.00;;;21.20;73.94
6150;BME280;3106;42.670;23.318;2023-08-17T04:25:49;94552.78;;;21.25;73.55
6150;BME280;3106;42.670;23.318;2023-08-17T04:28:16;94547.25;;;21.32;73.56
6150;BME280;3106;42.670;23.318;2023-08-17T04:30:44;94538.63;;;21.37;72.98
6150;BME280;3106;42.670;23.318;2023-08-17T04:33:11;94544.78;;;21.44;73.06
6150;BME280;3106;42.670;23.318;2023-08-17T04:35:38;94540.88;;;21.45;72.58
6150;BME280;3106;42.670;23.318;2023-08-17T04:38:05;94547.03;;;21.49;72.16
6150;BME280;3106;42.670;23.318;2023-08-17T04:40:32;94543.47;;;21.56;71.31
6150;BME280;3106;42.670;23.318;2023-08-17T04:42:59;94541.06;;;21.61;71.31
6150;BME280;3106;42.670;23.318;2023-08-17T04:45:26;94541.38;;;21.70;70.92
6150;BME280;3106;42.670;23.318;2023-08-17T04:47:54;94542.44;;;21.76;69.94
6150;BME280;3106;42.670;23.318;2023-08-17T04:50:21;94514.19;;;21.67;70.15
6150;BME280;3106;42.670;23.318;2023-08-17T04:52:48;94539.47;;;21.94;69.09
6150;BME280;3106;42.670;23.318;2023-08-17T04:55:15;94526.69;;;21.91;68.44
6150;BME280;3106;42.670;23.318;2023-08-17T04:57:42;94506.97;;;21.83;67.82
6150;BME280;3106;42.670;23.318;2023-08-17T05:00:10;94553.13;;;22.17;67.77
6150;BME280;3106;42.670;23.318;2023-08-17T05:02:38;94534.16;;;22.13;67.20
6150;BME280;3106;42.670;23.318;2023-08-17T05:05:07;94525.16;;;22.16;65.79
6150;BME280;3106;42.670;23.318;2023-08-17T05:07:34;94524.63;;;22.25;65.19
6150;BME280;3106;42.670;23.318;2023-08-17T05:10:01;94544.53;;;22.48;66.23
6150;BME280;3106;42.670;23.318;2023-08-17T05:12:29;94542.56;;;22.49;70.16
6150;BME280;3106;42.670;23.318;2023-08-17T05:14:55;94542.69;;;22.42;72.22
6150;BME280;3106;42.670;23.318;2023-08-17T05:17:22;94541.22;;;22.34;74.34
6150;BME280;3106;42.670;23.318;2023-08-17T05:19:49;94534.50;;;22.15;74.69
6150;BME280;3106;42.670;23.318;2023-08-17T05:22:18;94529.19;;;22.05;75.38
6150;BME280;3106;42.670;23.318;2023-08-17T05:24:45;94540.00;;;22.12;75.86
6150;BME280;3106;42.670;23.318;2023-08-17T05:27:11;94531.81;;;22.12;75.30
6150;BME280;3106;42.670;23.318;2023-08-17T05:29:38;94541.97;;;22.34;74.66
6150;BME280;3106;42.670;23.318;2023-08-17T05:32:05;94542.69;;;23.88;68.73
6150;BME280;3106;42.670;23.318;2023-08-17T05:34:32;94542.53;;;25.39;61.94
6150;BME280;3106;42.670;23.318;2023-08-17T05:36:59;94551.44;;;26.49;57.62
6150;BME280;3106;42.670;23.318;2023-08-17T05:39:27;94549.94;;;27.07;54.74
6150;BME280;3106;42.670;23.318;2023-08-17T05:41:54;94551.13;;;27.19;53.45
6150;BME280;3106;42.670;23.318;2023-08-17T05:44:21;94544.03;;;27.30;52.41
6150;BME280;3106;42.670;23.318;2023-08-17T05:46:48;94552.72;;;27.63;51.26
6150;BME280;3106;42.670;23.318;2023-08-17T05:49:15;94546.72;;;27.21;51.83
6150;BME280;3106;42.670;23.318;2023-08-17T05:51:41;94556.16;;;27.08;52.83
6150;BME280;3106;42.670;23.318;2023-08-17T05:54:08;94550.34;;;27.18;52.10
6150;BME280;3106;42.670;23.318;2023-08-17T05:56:36;94563.69;;;27.75;50.85
6150;BME280;3106;42.670;23.318;2023-08-17T05:59:03;94544.38;;;28.48;48.46
6150;BME280;3106;42.670;23.318;2023-08-17T06:01:30;94574.09;;;29.02;46.87
6150;BME280;3106;42.670;23.318;2023-08-17T06:03:57;94555.81;;;29.52;45.15
6150;BME280;3106;42.670;23.318;2023-08-17T06:06:24;94565.13;;;30.18;43.48
6150;BME280;3106;42.670;23.318;2023-08-17T06:08:52;94572.25;;;30.42;43.14
6150;BME280;3106;42.670;23.318;2023-08-17T06:11:18;94575.16;;;30.57;42.43
6150;BME280;3106;42.670;23.318;2023-08-17T06:13:47;94580.28;;;30.73;42.20
6150;BME280;3106;42.670;23.318;2023-08-17T06:16:14;94568.31;;;31.08;41.32
6150;BME280;3106;42.670;23.318;2023-08-17T06:18:41;94574.16;;;31.33;41.83
6150;BME280;3106;42.670;23.318;2023-08-17T06:21:08;94570.31;;;31.31;41.84
6150;BME280;3106;42.670;23.318;2023-08-17T06:23:35;94566.59;;;31.20;41.05
6150;BME280;3106;42.670;23.318;2023-08-17T06:26:02;94567.13;;;31.00;41.33
6150;BME280;3106;42.670;23.318;2023-08-17T06:28:28;94577.16;;;31.44;41.42
6150;BME280;3106;42.670;23.318;2023-08-17T06:30:57;94577.81;;;31.63;40.86
6150;BME280;3106;42.670;23.318;2023-08-17T06:33:24;94572.50;;;31.74;41.23
6150;BME280;3106;42.670;23.318;2023-08-17T06:35:51;94565.34;;;31.67;41.09
6150;BME280;3106;42.670;23.318;2023-08-17T06:38:18;94578.75;;;31.36;42.21
6150;BME280;3106;42.670;23.318;2023-08-17T06:40:45;94559.44;;;31.04;42.36
6150;BME280;3106;42.670;23.318;2023-08-17T06:43:13;94560.78;;;31.32;41.94
6150;BME280;3106;42.670;23.318;2023-08-17T06:45:40;94575.19;;;31.13;42.91
6150;BME280;3106;42.670;23.318;2023-08-17T06:48:08;94573.44;;;30.68;44.11
6150;BME280;3106;42.670;23.318;2023-08-17T06:50:35;94573.41;;;30.18;44.38
6150;BME280;3106;42.670;23.318;2023-08-17T06:53:02;94580.16;;;29.54;45.87
6150;BME280;3106;42.670;23.318;2023-08-17T06:55:29;94568.75;;;28.98;46.39
6150;BME280;3106;42.670;23.318;2023-08-17T06:57:56;94578.13;;;28.70;46.86
6150;BME280;3106;42.670;23.318;2023-08-17T07:00:24;94570.38;;;28.47;46.82
6150;BME280;3106;42.670;23.318;2023-08-17T07:02:51;94576.75;;;28.14;47.09
6150;BME280;3106;42.670;23.318;2023-08-17T07:05:19;94570.81;;;28.24;47.24
6150;BME280;3106;42.670;23.318;2023-08-17T07:07:46;94569.72;;;28.34;47.65
6150;BME280;3106;42.670;23.318;2023-08-17T07:10:13;94576.78;;;28.44;46.52
6150;BME280;3106;42.670;23.318;2023-08-17T07:12:40;94572.47;;;28.34;46.76
6150;BME280;3106;42.670;23.318;2023-08-17T07:15:07;94572.81;;;28.45;46.72
6150;BME280;3106;42.670;23.318;2023-08-17T07:17:34;94571.00;;;28.51;45.22
6150;BME280;3106;42.670;23.318;2023-08-17T07:20:02;94563.66;;;28.48;44.08
6150;BME280;3106;42.670;23.318;2023-08-17T07:22:31;94559.56;;;28.62;43.82
6150;BME280;3106;42.670;23.318;2023-08-17T07:24:58;94573.66;;;28.64;43.25
6150;BME280;3106;42.670;23.318;2023-08-17T07:27:25;94571.59;;;28.46;43.08
6150;BME280;3106;42.670;23.318;2023-08-17T07:29:51;94546.16;;;28.33;42.85
6150;BME280;3106;42.670;23.318;2023-08-17T07:32:18;94566.91;;;28.56;43.28
6150;BME280;3106;42.670;23.318;2023-08-17T07:34:48;94560.94;;;28.57;43.28
6150;BME280;3106;42.670;23.318;2023-08-17T07:37:14;94569.53;;;28.68;43.23
6150;BME280;3106;42.670;23.318;2023-08-17T07:39:43;94561.91;;;28.72;41.47
6150;BME280;3106;42.670;23.318;2023-08-17T07:42:09;94564.25;;;28.83;41.50
6150;BME280;3106;42.670;23.318;2023-08-17T07:44:36;94549.53;;;28.77;42.15
6150;BME280;3106;42.670;23.318;2023-08-17T07:47:05;94554.28;;;28.85;42.58
6150;BME280;3106;42.670;23.318;2023-08-17T07:49:32;94556.94;;;28.89;43.02
6150;BME280;3106;42.670;23.318;2023-08-17T07:51:58;94568.16;;;28.73;43.87
6150;BME280;3106;42.670;23.318;2023-08-17T07:54:26;94558.00;;;28.91;43.75
6150;BME280;3106;42.670;23.318;2023-08-17T07:56:54;94555.88;;;28.95;43.09
6150;BME280;3106;42.670;23.318;2023-08-17T07:59:21;94556.25;;;28.76;43.13
6150;BME280;3106;42.670;23.318;2023-08-17T08:01:48;94562.72;;;28.82;42.72
6150;BME280;3106;42.670;23.318;2023-08-17T08:04:14;94553.97;;;28.83;42.61
6150;BME280;3106;42.670;23.318;2023-08-17T08:06:42;94552.13;;;28.71;41.56
6150;BME280;3106;42.670;23.318;2023-08-17T08:09:08;94547.03;;;28.61;42.98
6150;BME280;3106;42.670;23.318;2023-08-17T08:11:35;94545.56;;;28.78;43.08
6150;BME280;3106;42.670;23.318;2023-08-17T08:14:03;94557.13;;;29.03;41.99
6150;BME280;3106;42.670;23.318;2023-08-17T08:16:30;94552.38;;;29.04;42.22
6150;BME280;3106;42.670;23.318;2023-08-17T08:18:57;94550.28;;;29.17;42.14
6150;BME280;3106;42.670;23.318;2023-08-17T08:21:24;94544.16;;;29.22;41.74
6150;BME280;3106;42.670;23.318;2023-08-17T08:23:52;94543.69;;;29.23;42.02
6150;BME280;3106;42.670;23.318;2023-08-17T08:26:19;94551.03;;;29.26;42.59
6150;BME280;3106;42.670;23.318;2023-08-17T08:28:46;94544.00;;;29.34;42.23
6150;BME280;3106;42.670;23.318;2023-08-17T08:31:14;94544.00;;;29.43;42.10
6150;BME280;3106;42.670;23.318;2023-08-17T08:33:41;94539.09;;;29.20;41.51
6150;BME280;3106;42.670;23.318;2023-08-17T08:36:08;94531.00;;;29.35;42.64
6150;BME280;3106;42.670;23.318;2023-08-17T08:38:35;94531.47;;;29.42;42.47
6150;BME280;3106;42.670;23.318;2023-08-17T08:41:02;94532.53;;;29.45;42.55
6150;BME280;3106;42.670;23.318;2023-08-17T08:43:29;94534.66;;;29.23;43.38
6150;BME280;3106;42.670;23.318;2023-08-17T08:45:58;94539.84;;;29.12;43.57
6150;BME280;3106;42.670;23.318;2023-08-17T08:48:29;94548.75;;;29.25;43.75
6150;BME280;3106;42.670;23.318;2023-08-17T08:50:56;94541.22;;;29.34;43.49
6150;BME280;3106;42.670;23.318;2023-08-17T08:53:30;94536.22;;;29.51;43.08
6150;BME280;3106;42.670;23.318;2023-08-17T08:55:59;94530.69;;;29.51;42.92
6150;BME280;3106;42.670;23.318;2023-08-17T08:58:26;94533.75;;;29.44;42.98
6150;BME280;3106;42.670;23.318;2023-08-17T09:00:54;94518.91;;;29.41;42.63
6150;BME280;3106;42.670;23.318;2023-08-17T09:03:21;94532.41;;;29.57;42.61
6150;BME280;3106;42.670;23.318;2023-08-17T09:05:50;94497.63;;;29.33;42.79
6150;BME280;3106;42.670;23.318;2023-08-17T09:08:20;94509.56;;;29.65;43.01
6150;BME280;3106;42.670;23.318;2023-08-17T09:10:49;94513.81;;;29.84;42.77
6150;BME280;3106;42.670;23.318;2023-08-17T09:13:17;94483.69;;;29.72;42.30
6150;BME280;3106;42.670;23.318;2023-08-17T09:15:45;94497.91;;;29.79;42.35
6150;BME280;3106;42.670;23.318;2023-08-17T09:18:12;94506.31;;;30.12;41.74
6150;BME280;3106;42.670;23.318;2023-08-17T09:20:40;94483.94;;;30.10;41.41
6150;BME280;3106;42.670;23.318;2023-08-17T09:23:13;94498.44;;;30.28;40.96
6150;BME280;3106;42.670;23.318;2023-08-17T09:25:41;94497.84;;;30.15;41.57
6150;BME280;3106;42.670;23.318;2023-08-17T09:28:09;94509.78;;;30.21;41.12
6150;BME280;3106;42.670;23.318;2023-08-17T09:30:52;94492.44;;;30.30;41.30
6150;BME280;3106;42.670;23.318;2023-08-17T09:33:21;94479.88;;;30.29;41.20
6150;BME280;3106;42.670;23.318;2023-08-17T09:35:49;94498.91;;;30.59;40.04
6150;BME280;3106;42.670;23.318;2023-08-17T09:38:18;94481.91;;;30.52;40.16
6150;BME280;3106;42.670;23.318;2023-08-17T09:40:45;94493.16;;;30.72;39.89
6150;BME280;3106;42.670;23.318;2023-08-17T09:43:13;94494.00;;;30.63;40.09
6150;BME280;3106;42.670;23.318;2023-08-17T09:45:42;94483.91;;;30.51;39.29
6150;BME280;3106;42.670;23.318;2023-08-17T09:48:10;94476.97;;;30.65;39.55
6150;BME280;3106;42.670;23.318;2023-08-17T09:50:37;94489.00;;;30.76;38.92
6150;BME280;3106;42.670;23.318;2023-08-17T09:53:04;94462.94;;;30.77;38.88
6150;BME280;3106;42.670;23.318;2023-08-17T09:55:32;94472.91;;;30.98;38.49
6150;BME280;3106;42.670;23.318;2023-08-17T09:58:00;94463.75;;;30.92;38.17
6150;BME280;3106;42.670;23.318;2023-08-17T10:00:27;94475.69;;;31.22;37.75
6150;BME280;3106;42.670;23.318;2023-08-17T10:02:55;94457.25;;;31.42;36.93
6150;BME280;3106;42.670;23.318;2023-08-17T10:05:25;94455.81;;;31.46;36.61
6150;BME280;3106;42.670;23.318;2023-08-17T10:07:57;94467.09;;;31.57;36.06
6150;BME280;3106;42.670;23.318;2023-08-17T10:10:27;94463.53;;;31.42;36.21
6150;BME280;3106;42.670;23.318;2023-08-17T10:13:00;94475.69;;;31.59;36.32
6150;BME280;3106;42.670;23.318;2023-08-17T10:15:36;94449.44;;;31.55;36.28
6150;BME280;3106;42.670;23.318;2023-08-17T10:18:09;94462.06;;;31.70;35.17
6150;BME280;3106;42.670;23.318;2023-08-17T10:20:42;94461.97;;;31.65;35.67
6150;BME280;3106;42.670;23.318;2023-08-17T10:23:15;94454.41;;;31.51;36.01
6150;BME280;3106;42.670;23.318;2023-08-17T10:25:44;94450.31;;;31.61;35.18
6150;BME280;3106;42.670;23.318;2023-08-17T10:28:12;94459.97;;;31.80;35.28
6150;BME280;3106;42.670;23.318;2023-08-17T10:30:39;94454.84;;;31.73;35.36
6150;BME280;3106;42.670;23.318;2023-08-17T10:33:06;94450.31;;;31.61;34.99
6150;BME280;3106;42.670;23.318;2023-08-17T10:35:34;94441.19;;;31.69;35.41
6150;BME280;3106;42.670;23.318;2023-08-17T10:38:03;94412.63;;;31.34;34.98
6150;BME280;3106;42.670;23.318;2023-08-17T10:40:36;94428.84;;;31.41;35.45
6150;BME280;3106;42.670;23.318;2023-08-17T10:43:04;94440.09;;;31.52;35.10
6150;BME280;3106;42.670;23.318;2023-08-17T10:45:34;94445.44;;;31.56;35.05
6150;BME280;3106;42.670;23.318;2023-08-17T10:48:29;94448.44;;;31.81;34.89
6150;BME280;3106;42.670;23.318;2023-08-17T10:51:02;94443.38;;;31.80;34.59
6150;BME280;3106;42.670;23.318;2023-08-17T10:53:34;94446.06;;;31.36;35.48
6150;BME280;3106;42.670;23.318;2023-08-17T10:56:07;94437.63;;;31.40;35.30
6150;BME280;3106;42.670;23.318;2023-08-17T10:58:34;94408.16;;;31.37;34.57
6150;BME280;3106;42.670;23.318;2023-08-17T11:01:03;94438.25;;;31.73;33.91
6150;BME280;3106;42.670;23.318;2023-08-17T11:03:47;94441.25;;;31.89;34.31
6150;BME280;3106;42.670;23.318;2023-08-17T11:06:15;94433.94;;;31.86;34.62
6150;BME280;3106;42.670;23.318;2023-08-17T11:08:53;94405.81;;;31.88;34.99
6150;BME280;3106;42.670;23.318;2023-08-17T11:11:21;94432.03;;;31.63;35.31
6150;BME280;3106;42.670;23.318;2023-08-17T11:13:49;94406.19;;;31.66;35.20
6150;BME280;3106;42.670;23.318;2023-08-17T11:16:18;94426.22;;;31.90;35.18
6150;BME280;3106;42.670;23.318;2023-08-17T11:18:46;94415.13;;;32.05;35.70
6150;BME280;3106;42.670;23.318;2023-08-17T11:21:13;94422.09;;;32.15;35.52
6150;BME280;3106;42.670;23.318;2023-08-17T11:23:41;94375.13;;;32.06;35.62
6150;BME280;3106;42.670;23.318;2023-08-17T11:26:08;94416.34;;;32.33;35.94
6150;BME280;3106;42.670;23.318;2023-08-17T11:28:35;94393.53;;;32.23;35.99
6150;BME280;3106;42.670;23.318;2023-08-17T11:31:05;94415.22;;;32.25;36.37
6150;BME280;3106;42.670;23.318;2023-08-17T11:33:35;94406.84;;;31.61;36.30
6150;BME280;3106;42.670;23.318;2023-08-17T11:36:04;94423.25;;;31.79;37.14
6150;BME280;3106;42.670;23.318;2023-08-17T11:38:32;94369.84;;;30.92;37.41
6150;BME280;3106;42.670;23.318;2023-08-17T11:41:00;94373.13;;;30.67;38.02
6150;BME280;3106;42.670;23.318;2023-08-17T11:43:28;94393.09;;;30.53;38.37
6150;BME280;3106;42.670;23.318;2023-08-17T11:45:55;94404.72;;;30.66;38.54
6150;BME280;3106;42.670;23.318;2023-08-17T11:48:23;94378.75;;;30.73;37.26
6150;BME280;3106;42.670;23.318;2023-08-17T11:50:53;94407.97;;;31.03;38.12
6150;BME280;3106;42.670;23.318;2023-08-17T11:53:20;94406.25;;;31.28;38.04
6150;BME280;3106;42.670;23.318;2023-08-17T11:55:47;94403.63;;;31.11;37.54
6150;BME280;3106;42.670;23.318;2023-08-17T11:58:14;94401.44;;;31.15;37.79
6150;BME280;3106;42.670;23.318;2023-08-17T12:00:43;94395.00;;;31.18;38.32
6150;BME280;3106;42.670;23.318;2023-08-17T12:03:13;94381.94;;;31.47;36.96
6150;BME280;3106;42.670;23.318;2023-08-17T12:05:42;94398.94;;;31.83;36.71
6150;BME280;3106;42.670;23.318;2023-08-17T12:08:13;94402.19;;;31.67;37.69
6150;BME280;3106;42.670;23.318;2023-08-17T12:10:40;94393.47;;;31.45;37.77
6150;BME280;3106;42.670;23.318;2023-08-17T12:13:11;94380.81;;;31.53;37.79
6150;BME280;3106;42.670;23.318;2023-08-17T12:15:38;94392.63;;;31.97;37.06
6150;BME280;3106;42.670;23.318;2023-08-17T12:18:05;94389.50;;;32.39;36.27
6150;BME280;3106;42.670;23.318;2023-08-17T12:20:33;94393.25;;;32.56;36.02
6150;BME280;3106;42.670;23.318;2023-08-17T12:23:02;94381.09;;;32.48;36.21
6150;BME280;3106;42.670;23.318;2023-08-17T12:25:31;94384.72;;;32.39;36.44
6150;BME280;3106;42.670;23.318;2023-08-17T12:27:58;94381.28;;;32.44;36.25
6150;BME280;3106;42.670;23.318;2023-08-17T12:30:27;94386.53;;;32.62;35.93
6150;BME280;3106;42.670;23.318;2023-08-17T12:32:55;94370.88;;;32.59;36.13
6150;BME280;3106;42.670;23.318;2023-08-17T12:35:21;94382.19;;;32.56;35.74
6150;BME280;3106;42.670;23.318;2023-08-17T12:37:50;94385.47;;;32.40;36.73
6150;BME280;3106;42.670;23.318;2023-08-17T12:40:17;94386.13;;;32.00;37.04
6150;BME280;3106;42.670;23.318;2023-08-17T12:42:45;94380.38;;;32.04;37.73
6150;BME280;3106;42.670;23.318;2023-08-17T12:45:14;94376.72;;;31.92;37.64
6150;BME280;3106;42.670;23.318;2023-08-17T12:47:41;94361.06;;;31.89;37.68
6150;BME280;3106;42.670;23.318;2023-08-17T12:50:09;94382.03;;;31.96;38.80
6150;BME280;3106;42.670;23.318;2023-08-17T12:52:36;94389.03;;;31.77;41.20
6150;BME280;3106;42.670;23.318;2023-08-17T12:55:03;94331.47;;;30.94;42.76
6150;BME280;3106;42.670;23.318;2023-08-17T12:57:30;94379.69;;;31.08;42.84
6150;BME280;3106;42.670;23.318;2023-08-17T12:59:58;94390.59;;;31.25;42.91
6150;BME280;3106;42.670;23.318;2023-08-17T13:02:25;94360.41;;;30.84;43.43
6150;BME280;3106;42.670;23.318;2023-08-17T13:04:52;94395.31;;;30.73;44.16
6150;BME280;3106;42.670;23.318;2023-08-17T13:07:19;94372.34;;;30.67;44.05
6150;BME280;3106;42.670;23.318;2023-08-17T13:09:46;94385.59;;;30.54;43.37
6150;BME280;3106;42.670;23.318;2023-08-17T13:12:13;94393.09;;;30.62;43.52
6150;BME280;3106;42.670;23.318;2023-08-17T13:14:39;94387.38;;;31.04;42.95